createdAt,value
2023-04-23T00:00:14.356Z,8.13
2023-04-23T00:02:42.488Z,8.05
2023-04-23T00:05:10.270Z,7.43
2023-04-23T00:07:37.173Z,11.32
2023-04-23T00:10:05.621Z,11.55
2023-04-23T00:12:32.267Z,7.25
2023-04-23T00:14:58.962Z,7.68
2023-04-23T00:17:25.721Z,8.88
2023-04-23T00:19:52.397Z,7.85
2023-04-23T00:22:20.406Z,9.32
2023-04-23T00:24:49.508Z,4.85
2023-04-23T00:27:18.058Z,6.82
2023-04-23T00:29:46.339Z,9.15
2023-04-23T00:32:14.545Z,6.70
2023-04-23T00:34:41.733Z,11.48
2023-04-23T00:37:08.657Z,9.55
2023-04-23T00:39:37.590Z,3.72
2023-04-23T00:42:10.566Z,7.80
2023-04-23T00:44:37.685Z,4.13
2023-04-23T00:47:04.305Z,4.30
2023-04-23T00:49:30.925Z,5.75
2023-04-23T00:51:57.646Z,5.40
2023-04-23T00:54:24.277Z,10.93
2023-04-23T00:56:51.117Z,6.43
2023-04-23T00:59:17.745Z,8.52
2023-04-23T01:01:45.547Z,7.28
2023-04-23T01:04:12.402Z,10.38
2023-04-23T01:06:39.244Z,7.47
2023-04-23T01:09:06.840Z,10.20
2023-04-23T01:11:33.451Z,6.00
2023-04-23T01:14:00.296Z,7.22
2023-04-23T01:16:26.970Z,5.88
2023-04-23T01:18:53.869Z,8.20
2023-04-23T01:21:20.474Z,5.88
2023-04-23T01:23:47.307Z,8.32
2023-04-23T01:26:14.988Z,14.40
2023-04-23T01:28:41.642Z,9.98
2023-04-23T01:31:08.281Z,5.60
2023-04-23T01:33:35.060Z,10.52
2023-04-23T01:36:01.784Z,6.47
2023-04-23T01:38:28.909Z,7.05
2023-04-23T01:40:55.670Z,13.32
2023-04-23T01:43:22.362Z,5.38
2023-04-23T01:45:49.048Z,10.43
2023-04-23T01:48:15.888Z,7.05
2023-04-23T01:50:42.488Z,6.20
2023-04-23T01:53:09.172Z,11.68
2023-04-23T01:55:36.251Z,10.13
2023-04-23T01:58:02.938Z,9.32
2023-04-23T02:00:29.559Z,5.15
2023-04-23T02:02:56.293Z,4.35
2023-04-23T02:05:22.991Z,6.60
2023-04-23T02:07:49.775Z,6.00
2023-04-23T02:10:16.584Z,7.43
2023-04-23T02:12:43.205Z,6.22
2023-04-23T02:15:09.897Z,7.97
2023-04-23T02:17:36.576Z,3.88
2023-04-23T02:20:03.343Z,5.28
2023-04-23T02:22:30.000Z,5.55
2023-04-23T02:24:56.652Z,5.60
2023-04-23T02:27:23.506Z,7.40
2023-04-23T02:29:50.187Z,9.52
2023-04-23T02:32:16.816Z,8.88
2023-04-23T02:34:43.675Z,6.18
2023-04-23T02:37:10.541Z,13.38
2023-04-23T02:39:38.974Z,6.47
2023-04-23T02:42:06.064Z,8.20
2023-04-23T02:44:33.040Z,10.90
2023-04-23T02:47:00.219Z,10.30
2023-04-23T02:49:27.031Z,9.85
2023-04-23T02:51:53.774Z,13.65
2023-04-23T02:54:20.524Z,12.68
2023-04-23T02:56:47.256Z,8.90
2023-04-23T02:59:13.971Z,5.53
2023-04-23T03:01:41.390Z,8.15
2023-04-23T03:04:10.007Z,11.20
2023-04-23T03:06:37.418Z,7.18
2023-04-23T03:09:04.000Z,9.70
2023-04-23T03:11:31.072Z,8.23
2023-04-23T03:13:58.470Z,8.32
2023-04-23T03:16:25.748Z,9.57
2023-04-23T03:18:54.348Z,11.02
2023-04-23T03:21:21.148Z,8.07
2023-04-23T03:23:47.844Z,8.18
2023-04-23T03:26:14.681Z,10.18
2023-04-23T03:28:41.411Z,6.43
2023-04-23T03:31:08.204Z,9.82
2023-04-23T03:33:34.953Z,6.45
2023-04-23T03:36:02.164Z,12.30
2023-04-23T03:38:32.890Z,6.88
2023-04-23T03:41:00.995Z,4.95
2023-04-23T03:43:28.001Z,14.15
2023-04-23T03:46:00.303Z,7.70
2023-04-23T03:48:30.136Z,10.68
2023-04-23T03:50:56.935Z,5.97
2023-04-23T03:53:41.767Z,7.00
2023-04-23T03:56:27.210Z,4.75
2023-04-23T03:59:19.905Z,9.85
2023-04-23T04:01:49.011Z,10.88
2023-04-23T04:04:16.019Z,6.97
2023-04-23T04:06:43.152Z,9.15
2023-04-23T04:09:09.842Z,8.02
2023-04-23T04:11:36.890Z,11.02
2023-04-23T04:14:03.556Z,15.20
2023-04-23T04:16:30.280Z,5.85
2023-04-23T04:18:56.980Z,9.95
2023-04-23T04:21:23.657Z,7.53
2023-04-23T04:23:51.085Z,11.15
2023-04-23T04:26:18.962Z,10.82
2023-04-23T04:28:45.754Z,11.95
2023-04-23T04:31:12.621Z,13.52
2023-04-23T04:33:39.835Z,14.27
2023-04-23T04:36:08.728Z,14.30
2023-04-23T04:38:37.935Z,11.63
2023-04-23T04:41:04.994Z,10.13
2023-04-23T04:43:32.844Z,16.13
2023-04-23T04:45:59.542Z,8.40
2023-04-23T04:48:26.396Z,10.52
2023-04-23T04:50:52.995Z,13.07
2023-04-23T04:53:19.631Z,16.35
2023-04-23T04:55:46.250Z,6.55
2023-04-23T04:58:12.979Z,9.27
2023-04-23T05:00:39.674Z,9.52
2023-04-23T05:03:06.724Z,9.38
2023-04-23T05:05:33.474Z,4.85
2023-04-23T05:08:02.176Z,12.93
2023-04-23T05:10:29.123Z,9.82
2023-04-23T05:12:55.726Z,10.15
2023-04-23T05:15:22.409Z,8.38
2023-04-23T05:17:53.153Z,11.25
2023-04-23T05:20:19.800Z,14.00
2023-04-23T05:22:46.501Z,8.55
2023-04-23T05:25:13.234Z,16.35
2023-04-23T05:27:39.856Z,13.27
2023-04-23T05:30:06.460Z,13.85
2023-04-23T05:32:33.236Z,11.35
2023-04-23T05:35:03.686Z,9.25
2023-04-23T05:37:31.380Z,5.80
2023-04-23T05:40:02.506Z,8.45
2023-04-23T05:42:29.369Z,13.00
2023-04-23T05:44:55.969Z,7.90
2023-04-23T05:47:22.682Z,8.35
2023-04-23T05:49:49.481Z,8.55
2023-04-23T05:52:16.144Z,11.55
2023-04-23T05:54:43.002Z,6.60
2023-04-23T05:57:09.976Z,13.70
2023-04-23T05:59:36.613Z,12.95
2023-04-23T06:02:03.207Z,6.90
2023-04-23T06:04:30.107Z,9.10
2023-04-23T06:06:56.990Z,12.50
2023-04-23T06:09:23.561Z,7.40
2023-04-23T06:11:50.722Z,8.32
2023-04-23T06:14:17.328Z,10.07
2023-04-23T06:16:43.996Z,7.65
2023-04-23T06:19:11.504Z,5.28
2023-04-23T06:21:38.144Z,10.07
2023-04-23T06:24:05.200Z,10.32
2023-04-23T06:26:33.239Z,7.45
2023-04-23T06:29:04.851Z,7.82
2023-04-23T06:31:36.282Z,15.52
2023-04-23T06:34:03.317Z,12.65
2023-04-23T06:36:29.951Z,8.38
2023-04-23T06:38:56.565Z,8.45
2023-04-23T06:41:23.167Z,8.50
2023-04-23T06:44:02.675Z,10.43
2023-04-23T06:46:35.939Z,7.85
2023-04-23T06:49:02.616Z,11.85
2023-04-23T06:51:29.391Z,8.38
2023-04-23T06:53:56.053Z,7.28
2023-04-23T06:56:22.790Z,13.63
2023-04-23T06:58:50.409Z,8.10
2023-04-23T07:01:20.914Z,6.25
2023-04-23T07:03:49.298Z,9.43
2023-04-23T07:06:16.364Z,9.30
2023-04-23T07:08:42.992Z,13.75
2023-04-23T07:11:10.753Z,8.63
2023-04-23T07:13:37.376Z,6.75
2023-04-23T07:16:03.953Z,10.98
2023-04-23T07:18:30.748Z,10.90
2023-04-23T07:20:57.352Z,6.95
2023-04-23T07:23:23.998Z,12.18
2023-04-23T07:25:50.721Z,7.75
2023-04-23T07:28:17.402Z,14.30
2023-04-23T07:30:44.069Z,7.75
2023-04-23T07:33:10.748Z,9.50
2023-04-23T07:35:37.329Z,7.85
2023-04-23T07:38:04.301Z,9.77
2023-04-23T07:40:30.878Z,10.70
2023-04-23T07:42:59.268Z,7.57
2023-04-23T07:45:26.009Z,10.05
2023-04-23T07:47:52.770Z,10.85
2023-04-23T07:50:19.455Z,9.75
2023-04-23T07:52:46.313Z,9.32
2023-04-23T07:55:13.058Z,8.57
2023-04-23T07:57:39.708Z,10.60
2023-04-23T08:00:09.383Z,10.95
2023-04-23T08:02:38.830Z,12.45
2023-04-23T08:05:05.783Z,6.78
2023-04-23T08:07:32.639Z,8.55
2023-04-23T08:10:03.061Z,11.73
2023-04-23T08:12:30.809Z,12.50
2023-04-23T08:14:58.273Z,10.38
2023-04-23T08:17:31.269Z,11.32
2023-04-23T08:19:58.091Z,20.52
2023-04-23T08:22:24.704Z,5.13
2023-04-23T08:24:51.370Z,9.32
2023-04-23T08:27:18.054Z,9.15
2023-04-23T08:29:44.805Z,8.23
2023-04-23T08:32:11.482Z,8.32
2023-04-23T08:34:38.211Z,7.82
2023-04-23T08:37:04.961Z,8.15
2023-04-23T08:39:33.006Z,10.95
2023-04-23T08:41:59.643Z,19.80
2023-04-23T08:44:26.449Z,9.68
2023-04-23T08:46:54.280Z,9.93
2023-04-23T08:49:40.183Z,7.03
2023-04-23T08:52:07.237Z,7.47
2023-04-23T08:54:34.042Z,8.30
2023-04-23T08:57:02.018Z,9.00
2023-04-23T08:59:28.838Z,7.30
2023-04-23T09:01:56.974Z,9.25
2023-04-23T09:04:25.547Z,11.15
2023-04-23T09:06:52.191Z,11.32
2023-04-23T09:09:18.928Z,7.07
2023-04-23T09:11:45.678Z,8.13
2023-04-23T09:14:12.303Z,11.98
2023-04-23T09:16:41.066Z,7.40
2023-04-23T09:19:08.551Z,7.35
2023-04-23T09:21:35.678Z,8.02
2023-04-23T09:24:02.595Z,7.07
2023-04-23T09:26:29.305Z,6.75
2023-04-23T09:28:56.095Z,8.77
2023-04-23T09:31:22.985Z,7.45
2023-04-23T09:33:49.596Z,8.10
2023-04-23T09:36:16.221Z,11.50
2023-04-23T09:38:42.837Z,11.30
2023-04-23T09:41:09.578Z,10.57
2023-04-23T09:43:36.336Z,7.65
2023-04-23T09:46:02.997Z,10.05
2023-04-23T09:48:29.653Z,5.38
2023-04-23T09:50:56.288Z,4.82
2023-04-23T09:53:22.910Z,7.85
2023-04-23T09:55:49.693Z,3.38
2023-04-23T09:58:16.437Z,5.10
2023-04-23T10:00:43.434Z,9.35
2023-04-23T10:03:10.790Z,5.57
2023-04-23T10:05:50.516Z,8.55
2023-04-23T10:08:24.327Z,3.50
2023-04-23T10:11:05.848Z,6.40
2023-04-23T10:13:36.542Z,5.22
2023-04-23T10:16:18.062Z,4.28
2023-04-23T10:18:48.779Z,3.53
2023-04-23T10:21:16.173Z,5.22
2023-04-23T10:23:42.814Z,3.85
2023-04-23T10:26:09.492Z,3.83
2023-04-23T10:28:36.364Z,1.55
2023-04-23T10:31:03.938Z,3.78
2023-04-23T10:33:35.154Z,3.38
2023-04-23T10:36:06.692Z,4.97
2023-04-23T10:38:33.265Z,3.85
2023-04-23T10:40:59.914Z,4.65
2023-04-23T10:43:26.494Z,1.75
2023-04-23T10:45:53.848Z,2.83
2023-04-23T10:48:20.524Z,1.50
2023-04-23T10:51:04.745Z,3.83
2023-04-23T10:53:34.309Z,3.00
2023-04-23T10:56:01.076Z,3.35
2023-04-23T10:58:27.795Z,2.58
2023-04-23T11:00:58.300Z,6.05
2023-04-23T11:03:32.361Z,5.03
2023-04-23T11:06:18.211Z,5.18
2023-04-23T11:08:48.388Z,2.40
2023-04-23T11:11:15.052Z,2.35
2023-04-23T11:13:41.820Z,2.97
2023-04-23T11:16:08.927Z,4.43
2023-04-23T11:18:45.768Z,5.00
2023-04-23T11:21:45.604Z,7.88
2023-04-23T11:24:16.244Z,4.55
2023-04-23T11:26:45.701Z,9.48
2023-04-23T11:29:15.658Z,7.00
2023-04-23T11:31:54.385Z,8.27
2023-04-23T11:34:35.591Z,5.97
2023-04-23T11:37:08.196Z,7.07
2023-04-23T11:39:37.468Z,5.28
2023-04-23T11:42:06.529Z,5.85
2023-04-23T11:44:33.862Z,7.57
2023-04-23T11:47:01.079Z,7.18
2023-04-23T11:49:28.011Z,8.80
2023-04-23T11:51:59.886Z,6.88
2023-04-23T11:54:29.780Z,8.27
2023-04-23T11:56:56.850Z,6.75
2023-04-23T11:59:23.540Z,4.90
2023-04-23T12:01:50.531Z,6.25
2023-04-23T12:04:17.459Z,6.43
2023-04-23T12:06:44.562Z,4.30
2023-04-23T12:09:12.198Z,6.43
2023-04-23T12:11:38.980Z,4.80
2023-04-23T12:14:05.888Z,7.93
2023-04-23T12:20:17.954Z,4.93
2023-04-23T12:29:17.442Z,5.63
2023-04-23T12:31:44.689Z,7.07
2023-04-23T12:34:16.804Z,4.05
2023-04-23T12:36:43.820Z,5.75
2023-04-23T12:39:10.565Z,5.30
2023-04-23T12:41:39.977Z,4.60
2023-04-23T12:44:08.739Z,4.95
2023-04-23T12:46:35.735Z,4.80
2023-04-23T12:49:02.513Z,5.15
2023-04-23T12:51:29.368Z,9.30
2023-04-23T12:53:56.342Z,5.97
2023-04-23T12:56:23.336Z,5.68
2023-04-23T12:58:57.780Z,5.65
2023-04-23T13:01:41.074Z,6.63
2023-04-23T13:04:19.919Z,5.78
2023-04-23T13:06:46.676Z,6.18
2023-04-23T13:09:13.402Z,6.07
2023-04-23T13:11:40.306Z,4.85
2023-04-23T13:14:07.023Z,6.43
2023-04-23T13:16:33.718Z,6.63
2023-04-23T13:19:00.607Z,6.50
2023-04-23T13:21:27.290Z,7.05
2023-04-23T13:23:53.973Z,7.10
2023-04-23T13:26:20.670Z,4.57
2023-04-23T13:28:47.360Z,7.90
2023-04-23T13:31:14.207Z,4.45
2023-04-23T13:33:40.864Z,6.90
2023-04-23T13:36:07.568Z,6.88
2023-04-23T13:38:34.523Z,5.05
2023-04-23T13:41:01.336Z,6.05
2023-04-23T13:43:28.009Z,6.85
2023-04-23T13:45:55.105Z,5.28
2023-04-23T13:48:21.864Z,8.25
2023-04-23T13:50:48.659Z,5.78
2023-04-23T13:53:15.416Z,4.30
2023-04-23T13:55:42.090Z,5.43
2023-04-23T13:58:12.140Z,5.60
2023-04-23T14:00:39.072Z,4.00
2023-04-23T14:03:05.839Z,3.92
2023-04-23T14:05:32.707Z,5.20
2023-04-23T14:07:59.359Z,4.80
2023-04-23T14:10:26.128Z,4.55
2023-04-23T14:12:53.213Z,4.93
2023-04-23T14:15:19.899Z,4.85
2023-04-23T14:17:46.634Z,5.18
2023-04-23T14:20:15.630Z,6.60
2023-04-23T14:22:42.459Z,5.63
2023-04-23T14:25:09.802Z,4.60
2023-04-23T14:27:36.517Z,4.90
2023-04-23T14:30:05.418Z,5.05
2023-04-23T14:32:32.195Z,4.57
2023-04-23T14:34:59.213Z,5.15
2023-04-23T14:37:25.983Z,7.05
2023-04-23T14:39:52.647Z,5.70
2023-04-23T14:42:19.333Z,7.78
2023-04-23T14:44:46.065Z,5.90
2023-04-23T14:47:14.891Z,6.18
2023-04-23T14:49:41.930Z,6.68
2023-04-23T14:52:08.845Z,5.68
2023-04-23T14:54:36.402Z,7.20
2023-04-23T14:57:03.251Z,6.38
2023-04-23T14:59:29.918Z,6.97
2023-04-23T15:01:57.095Z,8.70
2023-04-23T15:04:23.972Z,8.15
2023-04-23T15:06:50.732Z,8.02
2023-04-23T15:09:17.541Z,8.93
2023-04-23T15:11:44.271Z,7.88
2023-04-23T15:14:10.917Z,8.27
2023-04-23T15:16:47.688Z,8.60
2023-04-23T15:19:19.806Z,9.23
2023-04-23T15:21:46.524Z,9.03
2023-04-23T15:24:13.252Z,8.68
2023-04-23T15:26:40.044Z,7.65
2023-04-23T15:29:09.029Z,8.38
2023-04-23T15:31:35.898Z,7.60
2023-04-23T15:34:02.674Z,7.93
2023-04-23T15:36:29.269Z,8.02
2023-04-23T15:38:55.931Z,7.57
2023-04-23T15:41:22.503Z,9.35
2023-04-23T15:43:50.485Z,7.50
2023-04-23T15:46:17.267Z,9.95
2023-04-23T15:48:44.067Z,7.00
2023-04-23T15:51:10.901Z,7.15
2023-04-23T15:53:37.533Z,8.07
2023-04-23T15:56:04.500Z,7.32
2023-04-23T15:58:31.433Z,9.30
2023-04-23T16:00:58.068Z,8.13
2023-04-23T16:03:24.896Z,8.70
2023-04-23T16:05:52.306Z,9.02
2023-04-23T16:08:18.944Z,8.90
2023-04-23T16:10:45.594Z,7.95
2023-04-23T16:13:12.374Z,9.27
2023-04-23T16:15:38.938Z,9.77
2023-04-23T16:18:06.304Z,7.25
2023-04-23T16:20:33.324Z,8.60
2023-04-23T16:23:00.386Z,8.45
2023-04-23T16:25:27.092Z,10.02
2023-04-23T16:27:53.749Z,9.50
2023-04-23T16:30:21.082Z,9.48
2023-04-23T16:32:47.792Z,8.43
2023-04-23T16:35:14.541Z,8.73
2023-04-23T16:37:41.255Z,8.07
2023-04-23T16:40:07.936Z,8.68
2023-04-23T16:42:34.955Z,7.88
2023-04-23T16:45:02.021Z,8.85
2023-04-23T16:47:28.651Z,7.07
2023-04-23T16:49:55.392Z,8.73
2023-04-23T16:52:22.170Z,7.63
2023-04-23T16:54:49.585Z,7.88
2023-04-23T16:57:16.430Z,7.10
2023-04-23T16:59:43.128Z,10.18
2023-04-23T17:02:09.997Z,7.75
2023-04-23T17:04:36.863Z,7.18
2023-04-23T17:07:03.685Z,6.68
2023-04-23T17:09:31.632Z,8.07
2023-04-23T17:11:59.319Z,6.53
2023-04-23T17:14:26.590Z,7.85
2023-04-23T17:16:53.242Z,7.63
2023-04-23T17:19:20.904Z,7.13
2023-04-23T17:21:47.627Z,8.82
2023-04-23T17:24:14.275Z,9.23
2023-04-23T17:26:41.078Z,8.40
2023-04-23T17:29:07.805Z,8.02
2023-04-23T17:31:35.953Z,8.15
2023-04-23T17:34:04.293Z,9.73
2023-04-23T17:36:30.955Z,7.85
2023-04-23T17:38:57.613Z,6.95
2023-04-23T17:41:24.491Z,7.55
2023-04-23T17:43:51.264Z,11.27
2023-04-23T17:46:18.046Z,8.60
2023-04-23T17:48:45.012Z,7.55
2023-04-23T17:51:11.674Z,6.78
2023-04-23T17:53:38.444Z,7.22
2023-04-23T17:56:05.107Z,6.65
2023-04-23T17:58:31.897Z,7.05
2023-04-23T18:00:58.616Z,9.43
2023-04-23T18:03:27.907Z,7.22
2023-04-23T18:05:54.960Z,8.43
2023-04-23T18:08:22.838Z,7.75
2023-04-23T18:10:49.585Z,8.65
2023-04-23T18:13:16.279Z,9.00
2023-04-23T18:15:42.897Z,12.48
2023-04-23T18:18:09.626Z,12.05
2023-04-23T18:20:38.474Z,10.82
2023-04-23T18:23:05.421Z,12.02
2023-04-23T18:25:32.397Z,13.45
2023-04-23T18:27:59.486Z,12.77
2023-04-23T18:30:26.192Z,15.50
2023-04-23T18:32:52.853Z,15.25
2023-04-23T18:35:19.511Z,21.67
2023-04-23T18:37:46.192Z,18.92
2023-04-23T18:40:12.917Z,9.73
2023-04-23T18:42:39.505Z,10.73
2023-04-23T18:45:06.253Z,8.80
2023-04-23T18:47:32.957Z,9.85
2023-04-23T18:49:59.557Z,8.35
2023-04-23T18:52:26.191Z,9.38
2023-04-23T18:54:55.883Z,9.43
2023-04-23T18:57:22.507Z,10.10
2023-04-23T18:59:49.135Z,12.07
2023-04-23T19:02:28.168Z,11.00
2023-04-23T19:05:01.696Z,9.32
2023-04-23T19:07:28.327Z,9.63
2023-04-23T19:09:55.023Z,9.73
2023-04-23T19:12:21.682Z,8.02
2023-04-23T19:14:48.493Z,8.18
2023-04-23T19:17:18.512Z,9.68
2023-04-23T19:19:46.089Z,7.88
2023-04-23T19:22:12.758Z,9.07
2023-04-23T19:24:39.504Z,8.38
2023-04-23T19:27:07.172Z,9.60
2023-04-23T19:29:34.198Z,8.43
2023-04-23T19:32:00.845Z,11.05
2023-04-23T19:34:27.605Z,7.25
2023-04-23T19:36:54.314Z,7.85
2023-04-23T19:39:23.598Z,7.82
2023-04-23T19:41:50.533Z,9.25
2023-04-23T19:44:17.331Z,8.95
2023-04-23T19:46:43.975Z,6.00
2023-04-23T19:49:10.674Z,6.60
2023-04-23T19:51:38.027Z,5.22
2023-04-23T19:54:04.829Z,6.72
2023-04-23T19:56:31.417Z,7.38
2023-04-23T19:58:58.265Z,8.38
2023-04-23T20:01:28.193Z,6.65
2023-04-23T20:03:55.722Z,6.97
2023-04-23T20:06:22.423Z,7.93
2023-04-23T20:09:07.340Z,7.07
2023-04-23T20:11:34.781Z,7.82
2023-04-23T20:14:01.554Z,7.32
2023-04-23T20:16:31.368Z,10.10
2023-04-23T20:18:58.229Z,9.15
2023-04-23T20:21:25.214Z,8.35
2023-04-23T20:23:52.064Z,7.85
2023-04-23T20:26:18.869Z,8.23
2023-04-23T20:29:05.465Z,9.40
2023-04-23T20:31:32.434Z,9.60
2023-04-23T20:33:59.149Z,11.43
2023-04-23T20:36:28.924Z,10.68
2023-04-23T20:39:00.171Z,12.15
2023-04-23T20:41:26.897Z,10.07
2023-04-23T20:43:53.612Z,10.63
2023-04-23T20:46:21.458Z,11.57
2023-04-23T20:48:53.909Z,10.82
2023-04-23T20:51:20.780Z,10.55
2023-04-23T20:53:47.467Z,10.52
2023-04-23T20:56:14.134Z,10.95
2023-04-23T20:58:41.075Z,13.48
2023-04-23T21:01:08.005Z,9.00
2023-04-23T21:03:36.902Z,11.60
2023-04-23T21:06:03.912Z,11.10
2023-04-23T21:08:30.664Z,10.65
2023-04-23T21:10:57.291Z,13.57
2023-04-23T21:13:23.931Z,14.25
2023-04-23T21:15:50.839Z,12.95
2023-04-23T21:18:17.509Z,12.93
2023-04-23T21:20:44.159Z,14.35
2023-04-23T21:23:14.030Z,16.15
2023-04-23T21:25:40.717Z,13.10
2023-04-23T21:28:07.457Z,14.35
2023-04-23T21:30:34.201Z,15.65
2023-04-23T21:33:00.928Z,14.73
2023-04-23T21:35:27.711Z,13.75
2023-04-23T21:37:54.346Z,15.32
2023-04-23T21:40:21.076Z,15.07
2023-04-23T21:42:47.753Z,17.25
2023-04-23T21:45:14.428Z,19.23
2023-04-23T21:47:41.122Z,13.70
2023-04-23T21:50:08.356Z,17.95
2023-04-23T21:52:35.352Z,17.15
2023-04-23T21:55:01.990Z,18.50
2023-04-23T21:57:28.593Z,15.88
2023-04-23T21:59:55.306Z,19.92
2023-04-23T22:02:22.560Z,20.00
2023-04-23T22:04:49.444Z,16.38
2023-04-23T22:07:16.156Z,16.85
2023-04-23T22:09:43.035Z,16.67
2023-04-23T22:12:09.963Z,17.63
2023-04-23T22:14:36.682Z,19.90
2023-04-23T22:17:07.523Z,20.38
2023-04-23T22:19:34.411Z,19.83
2023-04-23T22:22:01.131Z,18.33
2023-04-23T22:24:27.818Z,19.60
2023-04-23T22:26:54.538Z,21.33
2023-04-23T22:29:22.189Z,20.20
2023-04-23T22:31:48.891Z,20.92
2023-04-23T22:34:15.749Z,19.80
2023-04-23T22:36:43.220Z,19.58
2023-04-23T22:39:10.794Z,21.55
2023-04-23T22:41:41.989Z,19.73
2023-04-23T22:44:09.459Z,17.58
2023-04-23T22:46:36.178Z,22.83
2023-04-23T22:49:03.219Z,28.83
2023-04-23T22:51:33.457Z,21.25
2023-04-23T22:54:00.175Z,19.48
2023-04-23T22:56:26.799Z,22.88
2023-04-23T22:58:53.439Z,26.83
2023-04-23T23:01:20.438Z,23.05
2023-04-23T23:03:49.713Z,20.48
2023-04-23T23:06:17.701Z,23.45
2023-04-23T23:08:44.491Z,25.00
2023-04-23T23:11:11.191Z,25.50
2023-04-23T23:13:39.628Z,25.77
2023-04-23T23:16:06.349Z,26.23
2023-04-23T23:18:33.276Z,22.30
2023-04-23T23:20:59.902Z,26.50
2023-04-23T23:23:26.627Z,22.17
2023-04-23T23:25:53.242Z,27.27
2023-04-23T23:28:20.011Z,27.70
2023-04-23T23:30:47.956Z,25.92
2023-04-23T23:33:14.677Z,25.05
2023-04-23T23:35:43.560Z,28.85
2023-04-23T23:38:10.873Z,31.38
2023-04-23T23:40:37.516Z,28.35
2023-04-23T23:43:04.172Z,30.13
2023-04-23T23:45:30.946Z,28.52
2023-04-23T23:47:57.698Z,31.67
2023-04-23T23:50:24.432Z,29.23
2023-04-23T23:52:51.069Z,27.20
2023-04-23T23:55:17.725Z,33.83
2023-04-23T23:57:44.428Z,27.08
